createdAt,value
2018-11-10T00:01:36.426Z,19.85
2018-11-10T00:04:08.444Z,29.25
2018-11-10T00:06:40.551Z,22.20
2018-11-10T00:09:12.500Z,23.25
2018-11-10T00:11:44.506Z,21.05
2018-11-10T00:14:16.524Z,28.45
2018-11-10T00:16:48.517Z,25.97
2018-11-10T00:19:20.482Z,25.82
2018-11-10T00:21:52.447Z,32.93
2018-11-10T00:24:24.451Z,22.37
2018-11-10T00:26:56.377Z,26.97
2018-11-10T00:29:28.346Z,29.67
2018-11-10T00:32:00.332Z,25.40
2018-11-10T00:34:32.306Z,33.20
2018-11-10T00:37:04.415Z,33.15
2018-11-10T00:39:36.488Z,25.25
2018-11-10T00:42:08.464Z,26.95
2018-11-10T00:44:40.505Z,37.00
2018-11-10T00:47:12.503Z,31.20
2018-11-10T00:49:44.437Z,30.97
2018-11-10T00:52:16.458Z,31.80
2018-11-10T00:54:48.414Z,31.02
2018-11-10T00:57:20.355Z,31.57
2018-11-10T00:59:52.255Z,31.87
2018-11-10T01:02:24.216Z,28.90
2018-11-10T01:04:56.259Z,27.32
2018-11-10T01:07:28.581Z,27.62
2018-11-10T01:10:00.562Z,30.70
2018-11-10T01:12:32.494Z,27.30
2018-11-10T01:15:05.447Z,29.75
2018-11-10T01:17:37.480Z,27.73
2018-11-10T01:20:10.454Z,26.10
2018-11-10T01:22:42.414Z,31.65
2018-11-10T01:25:14.582Z,28.60
2018-11-10T01:27:46.534Z,27.02
2018-11-10T01:30:18.477Z,23.73
2018-11-10T01:32:50.371Z,24.70
2018-11-10T01:35:22.323Z,26.52
2018-11-10T01:37:54.324Z,29.15
2018-11-10T01:40:26.203Z,26.70
2018-11-10T01:42:58.169Z,25.30
2018-11-10T01:45:30.081Z,31.50
2018-11-10T01:48:02.024Z,25.55
2018-11-10T01:50:33.995Z,33.10
2018-11-10T01:53:05.938Z,26.70
2018-11-10T01:55:37.890Z,31.05
2018-11-10T01:58:09.810Z,29.57
2018-11-10T02:00:41.814Z,27.85
2018-11-10T02:03:13.754Z,26.85
2018-11-10T02:05:45.654Z,26.85
2018-11-10T02:08:17.605Z,29.95
2018-11-10T02:10:49.618Z,23.52
2018-11-10T02:13:21.537Z,31.35
2018-11-10T02:15:53.467Z,26.35
2018-11-10T02:18:25.442Z,25.70
2018-11-10T02:20:57.370Z,30.60
2018-11-10T02:23:29.325Z,22.45
2018-11-10T02:26:01.257Z,25.20
2018-11-10T02:28:33.238Z,28.25
2018-11-10T02:31:05.223Z,27.48
2018-11-10T02:33:37.128Z,24.45
2018-11-10T02:36:09.066Z,25.80
2018-11-10T02:38:41.093Z,22.32
2018-11-10T02:41:12.990Z,26.57
2018-11-10T02:43:44.945Z,23.20
2018-11-10T02:46:16.890Z,28.55
2018-11-10T02:48:48.849Z,25.23
2018-11-10T02:51:20.754Z,23.47
2018-11-10T02:53:52.664Z,27.40
2018-11-10T02:56:24.628Z,22.52
2018-11-10T02:58:56.557Z,26.07
2018-11-10T03:01:28.568Z,23.75
2018-11-10T03:04:00.469Z,22.98
2018-11-10T03:06:32.390Z,35.40
2018-11-10T03:09:05.616Z,22.55
2018-11-10T03:11:38.224Z,22.80
2018-11-10T03:14:10.136Z,21.75
2018-11-10T03:16:42.073Z,25.37
2018-11-10T03:19:14.013Z,21.40
2018-11-10T03:21:45.983Z,21.48
2018-11-10T03:24:17.962Z,22.77
2018-11-10T03:26:49.902Z,20.82
2018-11-10T03:29:21.828Z,22.48
2018-11-10T03:31:53.789Z,25.43
2018-11-10T03:34:25.713Z,23.30
2018-11-10T03:36:57.651Z,21.23
2018-11-10T03:39:29.607Z,23.22
2018-11-10T03:42:01.559Z,24.37
2018-11-10T03:44:33.533Z,18.02
2018-11-10T03:47:05.426Z,19.40
2018-11-10T03:49:37.414Z,22.98
2018-11-10T03:52:09.349Z,21.48
2018-11-10T03:54:41.279Z,18.77
2018-11-10T03:57:13.196Z,21.37
2018-11-10T03:59:45.145Z,17.90
2018-11-10T04:02:17.036Z,17.98
2018-11-10T04:04:48.978Z,18.85
2018-11-10T04:07:20.892Z,17.67
2018-11-10T04:09:52.898Z,18.10
2018-11-10T04:12:24.881Z,21.23
2018-11-10T04:14:56.791Z,21.55
2018-11-10T04:17:28.749Z,19.87
2018-11-10T04:20:00.678Z,27.37
2018-11-10T04:22:34.631Z,22.60
2018-11-10T04:25:07.417Z,22.10
2018-11-10T04:27:39.392Z,18.23
2018-11-10T04:30:11.601Z,19.15
2018-11-10T04:32:43.572Z,21.80
2018-11-10T04:35:15.544Z,19.65
2018-11-10T04:37:47.459Z,19.77
2018-11-10T04:40:19.370Z,21.90
2018-11-10T04:42:51.284Z,20.75
2018-11-10T04:45:23.188Z,20.75
2018-11-10T04:47:55.159Z,20.57
2018-11-10T04:50:27.136Z,17.48
2018-11-10T04:52:59.035Z,19.55
2018-11-10T04:55:31.005Z,19.67
2018-11-10T04:58:02.961Z,15.35
2018-11-10T05:00:34.922Z,22.25
2018-11-10T05:03:06.874Z,19.57
2018-11-10T05:05:38.774Z,20.12
2018-11-10T05:08:10.750Z,22.30
2018-11-10T05:10:42.660Z,16.48
2018-11-10T05:13:14.655Z,16.05
2018-11-10T05:15:46.621Z,25.43
2018-11-10T05:18:18.593Z,20.75
2018-11-10T05:20:50.578Z,16.85
2018-11-10T05:23:22.502Z,18.27
2018-11-10T05:25:54.449Z,19.05
2018-11-10T05:28:26.370Z,23.80
2018-11-10T05:30:58.341Z,20.90
2018-11-10T05:33:30.233Z,22.22
2018-11-10T05:37:31.644Z,20.68
2018-11-10T05:40:04.145Z,19.17
2018-11-10T05:42:36.064Z,22.42
2018-11-10T05:45:08.235Z,23.32
2018-11-10T05:47:40.193Z,18.62
2018-11-10T05:50:12.132Z,21.52
2018-11-10T05:52:44.093Z,20.15
2018-11-10T05:55:16.093Z,27.27
2018-11-10T05:57:48.021Z,22.60
2018-11-10T06:00:19.949Z,18.77
2018-11-10T06:02:51.904Z,23.95
2018-11-10T06:05:23.860Z,22.93
2018-11-10T06:07:55.815Z,19.30
2018-11-10T06:10:27.823Z,24.27
2018-11-10T06:12:59.719Z,19.23
2018-11-10T06:15:31.625Z,20.08
2018-11-10T06:18:03.635Z,22.73
2018-11-10T06:20:35.730Z,19.42
2018-11-10T06:23:07.642Z,16.07
2018-11-10T06:25:39.572Z,17.52
2018-11-10T06:28:11.518Z,15.78
2018-11-10T06:30:43.454Z,12.93
2018-11-10T06:33:15.478Z,16.10
2018-11-10T06:35:47.539Z,14.05
2018-11-10T06:38:19.528Z,14.65
2018-11-10T06:40:51.480Z,15.18
2018-11-10T06:43:23.424Z,15.08
2018-11-10T06:45:55.403Z,19.45
2018-11-10T06:48:27.307Z,16.60
2018-11-10T06:50:59.313Z,13.55
2018-11-10T06:53:31.233Z,14.20
2018-11-10T06:56:03.185Z,11.93
2018-11-10T06:58:35.182Z,14.20
2018-11-10T07:01:07.121Z,13.37
2018-11-10T07:03:39.007Z,12.43
2018-11-10T07:06:10.946Z,15.10
2018-11-10T07:08:42.840Z,11.65
2018-11-10T07:11:14.852Z,10.95
2018-11-10T07:13:46.728Z,9.90
2018-11-10T07:16:18.672Z,9.33
2018-11-10T07:18:50.658Z,8.98
2018-11-10T07:21:22.611Z,9.40
2018-11-10T07:23:54.538Z,7.17
2018-11-10T07:26:26.577Z,11.80
2018-11-10T07:28:58.561Z,12.43
2018-11-10T07:31:30.478Z,11.00
2018-11-10T07:34:02.469Z,11.83
2018-11-10T07:36:34.398Z,12.97
2018-11-10T07:39:07.503Z,13.93
2018-11-10T07:41:39.840Z,16.57
2018-11-10T07:44:11.761Z,15.23
2018-11-10T07:46:43.730Z,12.60
2018-11-10T07:49:15.709Z,11.47
2018-11-10T07:51:47.638Z,15.07
2018-11-10T07:54:19.639Z,12.03
2018-11-10T07:56:51.567Z,15.07
2018-11-10T07:59:23.493Z,9.58
2018-11-10T08:01:55.422Z,11.77
2018-11-10T08:04:27.540Z,14.10
2018-11-10T08:06:59.400Z,10.80
2018-11-10T08:09:31.401Z,11.97
2018-11-10T08:12:03.442Z,13.20
2018-11-10T08:14:35.373Z,9.75
2018-11-10T08:17:07.287Z,11.00
2018-11-10T08:19:39.358Z,10.50
2018-11-10T08:22:11.422Z,14.30
2018-11-10T08:24:43.345Z,11.50
2018-11-10T08:27:15.345Z,19.60
2018-11-10T08:29:47.249Z,10.53
2018-11-10T08:32:19.207Z,11.25
2018-11-10T08:34:51.134Z,11.75
2018-11-10T08:37:23.078Z,9.75
2018-11-10T08:39:55.019Z,15.43
2018-11-10T08:42:26.986Z,7.92
2018-11-10T08:44:58.969Z,14.98
2018-11-10T08:47:30.924Z,10.63
2018-11-10T08:50:03.219Z,15.13
2018-11-10T08:52:35.331Z,13.10
2018-11-10T08:55:07.699Z,11.50
2018-11-10T08:57:40.243Z,12.98
2018-11-10T09:00:13.217Z,13.53
2018-11-10T09:02:45.360Z,15.23
2018-11-10T09:05:17.436Z,14.73
2018-11-10T09:07:49.375Z,13.62
2018-11-10T09:10:21.386Z,9.23
2018-11-10T09:12:53.450Z,18.07
2018-11-10T09:15:25.413Z,13.00
2018-11-10T09:17:57.400Z,15.43
2018-11-10T09:20:29.318Z,16.27
2018-11-10T09:23:01.193Z,12.13
2018-11-10T09:25:33.251Z,19.32
2018-11-10T09:28:05.220Z,19.85
2018-11-10T09:30:37.248Z,22.73
2018-11-10T09:33:09.242Z,16.65
2018-11-10T09:35:41.283Z,20.35
2018-11-10T09:38:13.228Z,15.55
2018-11-10T09:40:45.156Z,15.63
2018-11-10T09:43:17.105Z,20.57
2018-11-10T09:45:49.124Z,14.75
2018-11-10T09:48:21.130Z,15.00
2018-11-10T09:50:53.175Z,14.75
2018-11-10T09:53:25.101Z,16.75
2018-11-10T09:55:57.061Z,14.28
